Time;durP1;ratioP1;P1;durP2;ratioP2;P2;SDS_P1;SDS_P2;PMS_P1;PMS_P2;Temp;Humidity;BMP_temperature;BMP_pressure;BME280_temperature;BME280_humidity;BME280_pressure;Samples;Min_cycle;Max_cycle;Signal;HPM_P1;HPM_P2
2022/03/01 00:00:21;;;;;;;1.80;0.50;;;21.50;99.90;;;;;;5071174;28;20184;-65
2022/03/01 00:02:48;;;;;;;1.80;0.80;;;21.70;99.90;;;;;;5072111;28;20180;-65
2022/03/01 00:05:16;;;;;;;5.87;0.70;;;21.90;99.90;;;;;;5071009;28;20214;-65
2022/03/01 00:07:43;;;;;;;5.20;0.90;;;22.30;99.90;;;;;;5070390;28;20947;-65
2022/03/01 00:10:11;;;;;;;4.67;1.07;;;22.60;99.90;;;;;;5070747;28;20255;-66
2022/03/01 00:12:39;;;;;;;3.73;1.00;;;22.80;99.90;;;;;;5071891;28;20641;-67
2022/03/01 00:15:07;;;;;;;4.17;0.87;;;22.80;99.90;;;;;;5071617;28;20234;-68
2022/03/01 00:17:35;;;;;;;4.43;1.53;;;22.60;99.90;;;;;;5071813;28;20627;-66
2022/03/01 00:20:04;;;;;;;7.07;1.30;;;22.70;99.90;;;;;;5070920;28;20239;-65
2022/03/01 00:22:31;;;;;;;3.63;0.90;;;22.50;99.90;;;;;;5070557;28;20193;-66
2022/03/01 00:24:59;;;;;;;8.80;1.30;;;22.70;99.90;;;;;;5071530;28;20187;-66
2022/03/01 00:27:26;;;;;;;8.93;2.03;;;22.60;99.90;;;;;;5070634;28;20687;-65
2022/03/01 00:29:54;;;;;;;5.30;1.43;;;22.70;99.90;;;;;;5070970;28;20181;-67
2022/03/01 00:32:22;;;;;;;11.20;1.90;;;22.90;99.90;;;;;;5068573;28;20543;-68
2022/03/01 00:34:49;;;;;;;9.77;1.80;;;23.10;99.90;;;;;;5068588;28;20688;-66
2022/03/01 00:37:17;;;;;;;10.37;1.47;;;23.10;99.90;;;;;;5052314;28;20187;-66
2022/03/01 00:39:44;;;;;;;4.57;1.20;;;22.90;99.90;;;;;;5070059;28;20172;-66
2022/03/01 00:42:12;;;;;;;4.27;1.17;;;22.70;99.90;;;;;;5069645;28;20188;-67
2022/03/01 00:44:39;;;;;;;5.20;1.23;;;22.70;99.90;;;;;;5069932;28;20191;-67
2022/03/01 00:47:06;;;;;;;4.30;1.40;;;22.60;99.90;;;;;;5070787;28;20180;-67
2022/03/01 00:49:34;;;;;;;10.63;2.53;;;22.70;99.90;;;;;;5071172;28;21029;-67
2022/03/01 00:52:01;;;;;;;4.57;1.57;;;23.10;99.90;;;;;;5064628;28;20191;-66
2022/03/01 00:54:28;;;;;;;4.77;1.80;;;23.70;99.90;;;;;;5071684;28;20244;-67
2022/03/01 00:56:56;;;;;;;5.00;1.20;;;23.90;99.90;;;;;;5061581;28;20267;-67
2022/03/01 00:59:23;;;;;;;3.03;1.30;;;23.80;99.90;;;;;;5063295;28;20219;-66
2022/03/01 01:01:51;;;;;;;5.00;1.03;;;23.60;99.90;;;;;;5071818;28;20180;-65
2022/03/01 01:04:18;;;;;;;6.70;0.90;;;23.40;99.90;;;;;;5071539;28;20189;-66
2022/03/01 01:06:46;;;;;;;5.93;1.40;;;22.90;99.90;;;;;;5071837;28;20241;-67
2022/03/01 01:09:14;;;;;;;5.90;1.00;;;22.50;99.90;;;;;;5070600;28;20188;-67
2022/03/01 01:11:42;;;;;;;4.93;1.00;;;22.60;99.90;;;;;;5071648;28;20232;-67
2022/03/01 01:14:10;;;;;;;5.60;1.53;;;22.70;99.90;;;;;;5070328;28;20309;-66
2022/03/01 01:16:37;;;;;;;5.47;1.30;;;22.90;99.90;;;;;;5064626;28;20190;-67
2022/03/01 01:19:05;;;;;;;10.23;1.77;;;23.10;99.90;;;;;;5051912;28;20196;-65
2022/03/01 01:24:18;;;;;;;10.30;1.80;;;23.40;99.90;;;;;;5061483;28;20198;-66
2022/03/01 01:26:46;;;;;;;11.00;2.13;;;23.40;99.90;;;;;;5070626;28;20217;-66
2022/03/01 01:29:13;;;;;;;14.37;2.20;;;23.50;99.90;;;;;;5070622;28;20328;-65
2022/03/01 01:31:41;;;;;;;10.67;2.10;;;23.70;99.90;;;;;;5070498;28;20228;-66
2022/03/01 01:34:08;;;;;;;5.80;1.30;;;23.70;99.90;;;;;;5071445;28;20206;-65
2022/03/01 01:36:36;;;;;;;9.43;1.50;;;23.40;99.90;;;;;;5071676;28;20691;-68
2022/03/01 01:39:07;;;;;;;8.07;1.53;;;23.30;99.90;;;;;;5070183;28;20179;-66
2022/03/01 01:41:37;;;;;;;5.00;1.20;;;23.20;99.90;;;;;;5069552;28;20237;-67
2022/03/01 01:44:15;;;;;;;6.90;1.10;;;23.00;99.90;;;;;;5071630;28;20187;-67
2022/03/01 01:46:45;;;;;;;2.40;0.70;;;22.40;99.90;;;;;;5073710;28;20637;-68
2022/03/01 01:49:13;;;;;;;8.43;1.33;;;22.20;99.90;;;;;;5075276;28;20202;-66
2022/03/01 01:51:41;;;;;;;5.63;1.20;;;22.40;99.90;;;;;;5073701;28;20180;-67
2022/03/01 01:54:08;;;;;;;6.87;0.93;;;22.70;99.90;;;;;;5074618;28;20263;-66
2022/03/01 01:56:38;;;;;;;4.40;1.27;;;23.10;99.90;;;;;;5075156;28;20172;-66
2022/03/01 01:59:06;;;;;;;6.63;1.10;;;23.60;99.90;;;;;;5073603;28;20183;-67
2022/03/01 02:01:34;;;;;;;9.27;1.73;;;23.70;99.90;;;;;;5074042;28;20206;-68
2022/03/01 02:04:01;;;;;;;8.60;2.30;;;23.30;99.90;;;;;;5074381;28;20593;-66
2022/03/01 02:06:29;;;;;;;6.17;1.77;;;22.60;99.90;;;;;;5073298;28;20229;-67
2022/03/01 02:08:56;;;;;;;11.87;2.50;;;22.00;99.90;;;;;;5073348;28;20283;-67
2022/03/01 02:11:24;;;;;;;10.80;1.50;;;21.70;99.90;;;;;;5074767;28;20224;-67
2022/03/01 02:13:51;;;;;;;9.83;2.43;;;21.30;99.90;;;;;;5072670;28;20212;-67
2022/03/01 02:16:18;;;;;;;7.60;1.67;;;21.20;99.90;;;;;;5074440;28;20222;-68
2022/03/01 02:18:46;;;;;;;9.13;1.87;;;21.20;99.90;;;;;;5074361;28;20585;-67
2022/03/01 02:21:14;;;;;;;10.37;1.87;;;21.30;99.90;;;;;;5074431;28;20171;-67
2022/03/01 02:23:41;;;;;;;19.10;2.67;;;21.30;99.90;;;;;;5073852;28;20216;-68
2022/03/01 02:26:08;;;;;;;10.33;1.93;;;21.40;99.90;;;;;;5074210;28;20168;-64
2022/03/01 02:28:35;;;;;;;14.60;3.03;;;21.60;99.90;;;;;;5073853;28;20229;-66
2022/03/01 02:31:03;;;;;;;14.23;2.27;;;21.70;99.90;;;;;;5074153;28;20663;-66
2022/03/01 02:33:30;;;;;;;14.67;2.03;;;21.80;99.90;;;;;;5073636;28;20197;-67
2022/03/01 02:35:58;;;;;;;7.83;1.77;;;22.00;99.90;;;;;;5074147;28;20176;-68
2022/03/01 02:38:25;;;;;;;11.13;2.23;;;22.10;99.90;;;;;;5072811;28;20176;-66
2022/03/01 02:40:52;;;;;;;9.20;1.73;;;22.20;99.90;;;;;;5074003;28;20205;-66
2022/03/01 02:43:19;;;;;;;10.63;2.00;;;22.40;99.90;;;;;;5073446;28;20335;-66
2022/03/01 02:45:47;;;;;;;10.53;1.50;;;22.60;99.90;;;;;;5073904;28;20180;-66
2022/03/01 02:48:14;;;;;;;10.77;1.70;;;22.80;99.90;;;;;;5073784;28;20175;-66
2022/03/01 02:50:41;;;;;;;8.37;1.40;;;23.30;99.90;;;;;;5073827;28;20611;-67
2022/03/01 02:53:09;;;;;;;8.87;2.43;;;24.00;99.90;;;;;;5073374;28;20184;-67
2022/03/01 02:55:39;;;;;;;10.60;1.47;;;24.30;99.90;;;;;;5073139;28;20195;-66
2022/03/01 02:58:07;;;;;;;8.07;1.57;;;24.10;99.90;;;;;;5073697;28;20172;-66
2022/03/01 03:00:34;;;;;;;7.10;1.63;;;24.00;99.90;;;;;;5073357;28;20195;-67
2022/03/01 03:03:11;;;;;;;10.33;1.60;;;23.70;99.90;;;;;;5073678;28;20179;-67
2022/03/01 03:05:38;;;;;;;6.77;1.37;;;23.60;99.90;;;;;;5053578;28;20181;-67
2022/03/01 03:08:07;;;;;;;3.47;0.90;;;23.10;99.90;;;;;;5053495;28;20171;-67
2022/03/01 03:10:35;;;;;;;4.53;1.10;;;22.50;99.90;;;;;;5052135;28;20188;-67
2022/03/01 03:13:03;;;;;;;3.27;0.87;;;22.00;99.90;;;;;;5052284;28;20184;-67
2022/03/01 03:15:31;;;;;;;7.10;0.80;;;21.90;99.90;;;;;;5072803;28;20212;-67
2022/03/01 03:17:59;;;;;;;4.97;0.90;;;21.90;99.90;;;;;;5055601;28;20267;-67
2022/03/01 03:20:27;;;;;;;2.50;0.60;;;21.90;99.90;;;;;;5055551;28;20631;-67
2022/03/01 03:22:55;;;;;;;7.20;1.27;;;22.00;99.90;;;;;;5073222;28;20188;-68
2022/03/01 03:25:23;;;;;;;7.03;1.27;;;22.10;99.90;;;;;;5073554;28;20184;-66
2022/03/01 03:27:50;;;;;;;6.30;1.17;;;22.40;99.90;;;;;;5105549;28;20544;-67
2022/03/01 03:30:17;;;;;;;6.27;1.23;;;22.50;99.90;;;;;;5073375;28;20233;-67
2022/03/01 03:32:45;;;;;;;4.50;1.17;;;22.40;99.90;;;;;;5072590;28;20295;-69
2022/03/01 03:35:15;;;;;;;4.73;1.47;;;22.50;99.90;;;;;;5071544;28;20272;-68
2022/03/01 03:37:42;;;;;;;5.33;1.53;;;22.50;99.90;;;;;;5056448;28;20189;-68
2022/03/01 03:40:10;;;;;;;4.73;1.40;;;22.60;99.90;;;;;;5059986;28;20184;-68
2022/03/01 03:42:37;;;;;;;6.13;1.17;;;22.80;99.90;;;;;;5071588;28;20185;-68
2022/03/01 03:45:06;;;;;;;4.77;1.23;;;22.90;99.90;;;;;;5071414;28;20180;-68
2022/03/01 03:47:33;;;;;;;7.03;1.40;;;22.80;99.90;;;;;;5071047;28;20176;-67
2022/03/01 03:50:01;;;;;;;5.33;1.43;;;23.00;99.90;;;;;;5072718;28;20183;-67
2022/03/01 03:52:28;;;;;;;6.83;1.17;;;23.10;99.90;;;;;;5072730;28;20639;-67
2022/03/01 03:54:55;;;;;;;5.53;1.30;;;23.10;99.90;;;;;;5072349;28;20219;-68
2022/03/01 03:57:23;;;;;;;8.90;2.03;;;23.20;99.90;;;;;;5071543;28;20175;-68
2022/03/01 03:59:50;;;;;;;8.13;1.30;;;23.30;99.90;;;;;;5069662;28;20191;-69
2022/03/01 04:02:18;;;;;;;16.07;2.73;;;23.60;99.90;;;;;;5071242;28;20187;-69
2022/03/01 04:04:45;;;;;;;10.67;1.63;;;24.00;99.90;;;;;;5071531;28;20212;-69
2022/03/01 04:07:15;;;;;;;11.30;2.03;;;24.20;99.90;;;;;;5070103;28;20183;-70
2022/03/01 04:09:47;;;;;;;8.77;1.67;;;24.10;99.90;;;;;;5071140;28;20207;-69
2022/03/01 04:12:15;;;;;;;6.03;1.70;;;24.10;99.90;;;;;;5071481;28;20321;-69
2022/03/01 04:14:43;;;;;;;10.97;2.03;;;23.80;99.90;;;;;;5072535;28;20219;-69
2022/03/01 04:17:11;;;;;;;9.57;2.30;;;23.50;99.90;;;;;;5072467;28;20190;-69
2022/03/01 04:19:38;;;;;;;12.20;2.40;;;23.30;99.90;;;;;;5071742;28;20241;-69
2022/03/01 04:22:06;;;;;;;10.50;2.43;;;23.20;99.90;;;;;;5072029;28;20385;-70
2022/03/01 04:24:33;;;;;;;5.27;1.87;;;22.90;99.90;;;;;;5072018;28;20199;-69
2022/03/01 04:27:02;;;;;;;7.57;1.50;;;22.40;99.90;;;;;;5072272;28;20174;-69
2022/03/01 04:29:30;;;;;;;5.73;1.50;;;21.90;99.90;;;;;;5072144;28;20188;-68
2022/03/01 04:31:58;;;;;;;4.73;0.90;;;21.50;99.90;;;;;;5072072;28;20286;-68
2022/03/01 04:34:26;;;;;;;5.10;1.20;;;21.10;99.90;;;;;;5072134;28;20673;-69
2022/03/01 04:36:53;;;;;;;8.70;1.90;;;20.80;99.90;;;;;;5071754;28;20268;-68
2022/03/01 04:39:21;;;;;;;9.23;1.40;;;20.70;99.90;;;;;;5071909;28;20180;-69
2022/03/01 04:41:48;;;;;;;5.63;1.20;;;20.60;99.90;;;;;;5072047;28;20207;-69
2022/03/01 04:44:16;;;;;;;11.43;1.77;;;20.70;99.90;;;;;;5072076;28;20183;-69
2022/03/01 04:46:43;;;;;;;12.33;1.93;;;20.60;99.90;;;;;;5070292;28;20180;-66
2022/03/01 04:49:11;;;;;;;6.50;1.67;;;20.80;99.90;;;;;;5071323;28;20191;-67
2022/03/01 04:51:39;;;;;;;15.93;2.33;;;20.90;99.90;;;;;;5071018;28;20725;-69
2022/03/01 04:54:07;;;;;;;12.93;2.47;;;20.90;99.90;;;;;;5070239;28;20230;-69
2022/03/01 04:56:35;;;;;;;14.27;2.50;;;20.90;99.90;;;;;;5071008;28;20702;-69
2022/03/01 04:59:03;;;;;;;10.43;2.00;;;21.10;99.90;;;;;;5071452;28;20643;-68
2022/03/01 05:01:30;;;;;;;12.60;3.40;;;21.30;99.90;;;;;;5072440;28;20954;-68
2022/03/01 05:03:57;;;;;;;10.47;2.43;;;21.30;99.90;;;;;;5071714;28;20180;-68
2022/03/01 05:06:25;;;;;;;9.43;2.17;;;21.50;99.90;;;;;;5071982;28;20176;-68
2022/03/01 05:08:52;;;;;;;13.07;2.27;;;21.50;99.90;;;;;;5070524;28;20198;-68
2022/03/01 05:11:21;;;;;;;14.63;2.87;;;21.60;99.90;;;;;;5071447;28;20719;-67
2022/03/01 05:13:49;;;;;;;13.60;2.67;;;21.80;99.90;;;;;;5071359;28;20230;-68
2022/03/01 05:16:16;;;;;;;13.87;2.00;;;21.90;99.90;;;;;;5071583;28;20213;-67
2022/03/01 05:18:46;;;;;;;15.67;2.67;;;22.00;99.90;;;;;;5072123;28;20187;-68
2022/03/01 05:21:14;;;;;;;9.50;2.50;;;22.00;99.90;;;;;;5075425;28;20726;-68
2022/03/01 05:23:41;;;;;;;14.97;2.73;;;22.10;99.90;;;;;;5074145;28;20185;-68
2022/03/01 05:26:10;;;;;;;12.67;2.57;;;22.20;99.90;;;;;;5075450;28;20223;-69
2022/03/01 05:28:44;;;;;;;19.17;2.83;;;22.50;99.90;;;;;;5075086;28;20188;-69
2022/03/01 05:31:12;;;;;;;17.83;2.40;;;22.50;99.90;;;;;;5076087;28;20225;-69
2022/03/01 05:33:39;;;;;;;18.30;2.97;;;22.60;99.90;;;;;;5075231;28;20297;-69
2022/03/01 05:36:06;;;;;;;15.03;2.20;;;22.70;99.90;;;;;;5075201;28;20193;-69
2022/03/01 05:38:34;;;;;;;12.27;2.10;;;22.50;99.90;;;;;;5074289;28;20188;-69
2022/03/01 05:41:01;;;;;;;20.50;2.93;;;22.70;99.90;;;;;;5075113;28;20193;-68
2022/03/01 05:43:29;;;;;;;13.73;2.17;;;22.60;99.90;;;;;;5075076;28;20191;-69
2022/03/01 05:45:56;;;;;;;15.17;2.67;;;22.80;99.90;;;;;;5075139;28;20271;-71
2022/03/01 05:48:24;;;;;;;16.07;2.37;;;22.90;99.90;;;;;;5075339;28;20204;-71
2022/03/01 05:50:51;;;;;;;17.13;2.30;;;23.00;99.90;;;;;;5074109;28;20594;-68
2022/03/01 05:53:19;;;;;;;16.47;1.90;;;23.20;99.90;;;;;;5076891;28;20272;-69
2022/03/01 05:55:46;;;;;;;15.80;2.27;;;23.00;99.90;;;;;;5074948;28;20547;-67
2022/03/01 05:58:14;;;;;;;10.13;1.60;;;23.00;99.90;;;;;;5073746;28;20194;-71
2022/03/01 06:00:41;;;;;;;12.20;2.50;;;23.10;99.90;;;;;;5074489;28;20241;-68
2022/03/01 06:03:09;;;;;;;13.90;2.33;;;23.00;99.90;;;;;;5073645;28;20188;-69
2022/03/01 06:05:36;;;;;;;12.80;2.10;;;23.00;99.90;;;;;;5074490;28;20190;-68
2022/03/01 06:08:04;;;;;;;13.73;2.23;;;23.00;99.90;;;;;;5073963;28;20317;-68
2022/03/01 06:10:31;;;;;;;13.70;2.37;;;22.90;99.90;;;;;;5074325;28;20183;-69
2022/03/01 06:12:58;;;;;;;7.33;1.63;;;22.80;99.90;;;;;;5074863;28;20200;-69
2022/03/01 06:15:26;;;;;;;14.50;3.00;;;22.70;99.90;;;;;;5074321;28;20230;-69
2022/03/01 06:17:54;;;;;;;17.53;2.63;;;22.70;99.90;;;;;;5074465;28;20629;-69
2022/03/01 06:20:21;;;;;;;17.13;2.57;;;22.70;99.90;;;;;;5073464;28;20183;-68
2022/03/01 06:22:48;;;;;;;8.53;1.97;;;22.70;99.90;;;;;;5074397;28;20178;-69
2022/03/01 06:25:16;;;;;;;16.70;2.47;;;22.80;99.90;;;;;;5074063;28;20189;-68
2022/03/01 06:27:44;;;;;;;14.40;2.03;;;23.00;99.90;;;;;;5072512;28;20189;-68
2022/03/01 06:30:12;;;;;;;13.50;4.40;;;23.10;99.90;;;;;;5072845;28;20175;-68
2022/03/01 06:32:39;;;;;;;23.13;7.90;;;23.10;99.90;;;;;;5072875;28;20190;-69
2022/03/01 06:35:07;;;;;;;12.47;2.60;;;23.10;99.90;;;;;;5073793;28;20254;-69
2022/03/01 06:37:35;;;;;;;11.33;2.57;;;23.10;99.90;;;;;;5074197;28;20228;-68
2022/03/01 06:40:06;;;;;;;15.33;2.10;;;23.00;99.90;;;;;;5073949;28;20652;-70
2022/03/01 06:42:34;;;;;;;9.53;1.93;;;23.00;99.90;;;;;;5071636;28;20213;-68
2022/03/01 06:45:02;;;;;;;14.87;3.27;;;23.10;99.90;;;;;;5067139;28;20194;-68
2022/03/01 06:47:30;;;;;;;21.40;4.00;;;23.20;99.90;;;;;;5068400;28;20276;-69
2022/03/01 06:49:57;;;;;;;13.30;2.87;;;23.30;99.90;;;;;;5073779;28;20194;-68
2022/03/01 06:52:24;;;;;;;12.30;2.83;;;23.30;99.90;;;;;;5074046;28;20178;-68
2022/03/01 06:54:53;;;;;;;12.60;2.50;;;23.50;99.90;;;;;;5072667;28;20322;-68
2022/03/01 06:57:21;;;;;;;15.33;2.80;;;23.40;99.90;;;;;;5073746;28;20577;-68
2022/03/01 06:59:53;;;;;;;16.07;2.60;;;23.20;99.90;;;;;;5073622;28;20649;-68
2022/03/01 07:02:21;;;;;;;13.50;2.27;;;23.00;99.90;;;;;;5073583;28;20671;-67
2022/03/01 07:04:48;;;;;;;25.07;3.87;;;22.80;99.90;;;;;;5063169;28;20186;-68
2022/03/01 07:07:16;;;;;;;8.07;2.00;;;22.60;99.90;;;;;;5053235;28;20275;-68
2022/03/01 07:09:44;;;;;;;13.83;2.17;;;21.70;99.90;;;;;;5059763;28;20645;-69
2022/03/01 07:12:12;;;;;;;10.07;2.00;;;21.10;99.90;;;;;;5074261;28;20674;-69
2022/03/01 07:14:39;;;;;;;9.07;2.83;;;21.00;99.90;;;;;;5074011;28;20273;-69
2022/03/01 07:17:07;;;;;;;8.27;2.07;;;20.80;99.90;;;;;;5074368;28;20202;-69
2022/03/01 07:19:35;;;;;;;9.10;2.37;;;20.80;99.90;;;;;;5074335;28;20183;-70
2022/03/01 07:22:03;;;;;;;10.23;2.23;;;20.70;99.90;;;;;;5073866;28;20185;-69
2022/03/01 07:24:31;;;;;;;14.30;2.60;;;20.70;99.90;;;;;;5074363;28;20218;-68
2022/03/01 07:26:58;;;;;;;15.47;3.20;;;20.80;99.90;;;;;;5074109;28;20646;-68
2022/03/01 07:29:27;;;;;;;12.47;1.87;;;20.80;99.90;;;;;;5074504;28;20178;-68
2022/03/01 07:31:55;;;;;;;9.43;2.37;;;20.80;99.90;;;;;;5074622;28;20297;-69
2022/03/01 07:34:22;;;;;;;12.87;2.37;;;20.80;99.90;;;;;;5072794;28;20211;-69
2022/03/01 07:36:50;;;;;;;12.50;2.13;;;20.80;99.90;;;;;;5073716;28;20179;-68
2022/03/01 07:39:18;;;;;;;14.07;2.37;;;20.90;99.90;;;;;;5072377;28;20668;-68
2022/03/01 07:41:46;;;;;;;12.83;2.60;;;20.90;99.90;;;;;;5073633;28;20177;-68
2022/03/01 07:44:13;;;;;;;18.07;2.50;;;20.90;99.90;;;;;;5073982;28;20555;-68
2022/03/01 07:46:42;;;;;;;13.30;1.80;;;20.90;99.90;;;;;;5074627;28;20606;-68
2022/03/01 07:49:09;;;;;;;11.97;2.43;;;21.00;99.90;;;;;;5072508;28;20180;-67
2022/03/01 07:51:38;;;;;;;13.40;2.60;;;21.00;99.90;;;;;;5073073;28;20189;-68
2022/03/01 07:54:06;;;;;;;18.07;2.87;;;20.90;99.90;;;;;;5073672;28;20210;-68
2022/03/01 07:56:34;;;;;;;16.00;2.37;;;21.00;99.90;;;;;;5073290;28;20642;-68
2022/03/01 07:59:02;;;;;;;11.37;2.50;;;20.90;99.90;;;;;;5073346;28;20188;-67
2022/03/01 08:01:30;;;;;;;13.57;2.70;;;20.90;99.90;;;;;;5073334;28;20562;-68
2022/03/01 08:03:57;;;;;;;17.67;2.50;;;20.90;99.90;;;;;;5073545;28;20183;-68
2022/03/01 08:06:26;;;;;;;10.03;2.20;;;20.90;99.90;;;;;;5073640;28;20245;-68
2022/03/01 08:08:54;;;;;;;18.33;2.40;;;20.90;99.90;;;;;;5073061;28;20200;-67
2022/03/01 08:11:22;;;;;;;13.67;2.13;;;21.00;99.90;;;;;;5073390;28;20226;-67
2022/03/01 08:13:49;;;;;;;15.67;2.33;;;21.00;99.90;;;;;;5071928;28;20271;-68
2022/03/01 08:16:19;;;;;;;18.50;3.13;;;21.00;99.90;;;;;;5073214;28;20187;-68
2022/03/01 08:18:47;;;;;;;22.27;2.57;;;20.90;99.90;;;;;;5071711;28;20194;-67
2022/03/01 08:21:16;;;;;;;15.47;2.67;;;20.90;99.90;;;;;;5073848;28;20173;-68
2022/03/01 08:23:44;;;;;;;22.03;2.87;;;20.90;99.90;;;;;;5072878;28;20707;-68
2022/03/01 08:26:12;;;;;;;18.27;3.10;;;20.90;99.90;;;;;;5072337;28;20191;-69
2022/03/01 08:28:40;;;;;;;14.07;2.27;;;20.90;99.90;;;;;;5072675;28;20222;-67
2022/03/01 08:31:08;;;;;;;9.60;2.43;;;20.60;99.90;;;;;;5073416;28;20188;-68
2022/03/01 08:33:36;;;;;;;14.27;3.13;;;20.60;99.90;;;;;;5073452;28;20312;-69
2022/03/01 08:36:05;;;;;;;18.17;6.87;;;20.50;99.90;;;;;;5073579;28;20191;-69
2022/03/01 08:38:33;;;;;;;10.67;2.20;;;20.50;99.90;;;;;;5071956;28;20188;-68
2022/03/01 08:41:01;;;;;;;13.13;2.57;;;20.50;99.90;;;;;;5073499;28;20180;-68
2022/03/01 08:43:29;;;;;;;9.60;2.17;;;20.50;99.90;;;;;;5071425;28;20601;-70
2022/03/01 08:46:00;;;;;;;12.70;3.03;;;20.40;99.90;;;;;;5071811;28;20188;-68
2022/03/01 08:48:28;;;;;;;12.47;2.13;;;20.40;99.90;;;;;;5073416;28;20648;-69
2022/03/01 08:50:56;;;;;;;9.57;2.07;;;20.40;99.90;;;;;;5073358;28;20202;-69
2022/03/01 08:53:24;;;;;;;12.60;2.87;;;20.30;99.90;;;;;;5072668;28;20184;-68
2022/03/01 08:55:53;;;;;;;8.43;2.27;;;20.40;99.90;;;;;;5077536;28;20181;-69
2022/03/01 08:58:21;;;;;;;10.40;2.60;;;20.40;99.90;;;;;;5077434;28;20179;-67
2022/03/01 09:00:52;;;;;;;10.23;1.93;;;20.50;99.90;;;;;;5076268;28;20304;-68
2022/03/01 09:03:23;;;;;;;7.17;1.93;;;20.50;99.90;;;;;;5075564;28;20211;-68
2022/03/01 09:05:51;;;;;;;10.33;2.47;;;20.50;99.90;;;;;;5055843;28;20176;-68
2022/03/01 09:08:19;;;;;;;10.00;2.60;;;20.50;99.90;;;;;;5058930;28;20184;-68
2022/03/01 09:10:47;;;;;;;11.20;2.60;;;20.40;99.90;;;;;;5077400;28;20315;-67
2022/03/01 09:13:15;;;;;;;9.57;2.50;;;20.50;99.90;;;;;;5076020;28;20305;-70
2022/03/01 09:15:43;;;;;;;8.17;2.33;;;20.50;99.90;;;;;;5076145;28;20262;-68
2022/03/01 09:18:11;;;;;;;7.97;2.30;;;20.50;99.90;;;;;;5075931;28;20191;-69
2022/03/01 09:20:39;;;;;;;14.60;2.60;;;20.40;99.90;;;;;;5076770;28;20673;-67
2022/03/01 09:23:07;;;;;;;14.90;2.70;;;20.40;99.90;;;;;;5076051;28;20242;-69
2022/03/01 09:25:35;;;;;;;7.27;2.23;;;20.30;99.90;;;;;;5076386;28;20184;-68
2022/03/01 09:28:03;;;;;;;8.90;2.10;;;20.30;99.90;;;;;;5079189;28;20183;-68
2022/03/01 09:30:32;;;;;;;8.77;2.13;;;20.40;99.90;;;;;;5076860;28;20282;-67
2022/03/01 09:33:00;;;;;;;11.77;2.40;;;20.40;99.90;;;;;;5075714;28;20180;-69
2022/03/01 09:35:28;;;;;;;6.00;2.77;;;20.40;99.90;;;;;;5076979;28;20215;-68
2022/03/01 09:37:56;;;;;;;11.97;2.20;;;20.50;99.90;;;;;;5077590;28;20176;-68
2022/03/01 09:40:24;;;;;;;10.03;2.83;;;20.40;99.90;;;;;;5077324;28;20175;-68
2022/03/01 09:42:53;;;;;;;15.23;2.70;;;20.40;99.90;;;;;;5076708;28;20180;-68
2022/03/01 09:45:21;;;;;;;12.73;2.17;;;20.40;99.90;;;;;;5077095;28;20180;-68
2022/03/01 09:47:52;;;;;;;15.20;2.53;;;20.30;99.90;;;;;;5076364;28;20186;-67
2022/03/01 09:50:27;;;;;;;15.93;3.23;;;20.30;99.90;;;;;;5076605;28;20184;-68
2022/03/01 09:53:00;;;;;;;10.90;2.57;;;20.40;99.90;;;;;;5076169;28;20183;-67
2022/03/01 09:55:29;;;;;;;13.90;2.43;;;20.40;99.90;;;;;;5083004;28;20245;-67
2022/03/01 09:57:58;;;;;;;10.63;2.13;;;20.40;99.90;;;;;;5076095;28;20179;-68
2022/03/01 10:00:26;;;;;;;14.90;2.27;;;20.40;99.90;;;;;;5074771;28;20189;-68
2022/03/01 10:02:56;;;;;;;14.67;2.50;;;20.40;99.90;;;;;;5074562;28;20187;-68
2022/03/01 10:05:35;;;;;;;14.13;2.47;;;20.40;99.90;;;;;;5075434;28;20187;-68
2022/03/01 10:08:12;;;;;;;10.53;2.40;;;20.40;99.90;;;;;;5064130;28;20186;-68
2022/03/01 10:10:47;;;;;;;18.10;2.50;;;20.40;99.90;;;;;;5058360;28;20191;-68
2022/03/01 10:13:23;;;;;;;17.30;2.80;;;20.40;99.90;;;;;;5058311;28;20233;-68
2022/03/01 10:16:11;;;;;;;14.67;2.30;;;20.40;99.90;;;;;;5059325;28;20230;-68
2022/03/01 10:18:48;;;;;;;13.60;3.23;;;20.40;99.90;;;;;;5074384;28;20207;-67
2022/03/01 10:21:17;;;;;;;14.37;2.83;;;20.40;99.90;;;;;;5075974;28;20164;-67
2022/03/01 10:23:57;;;;;;;12.40;2.43;;;20.40;99.90;;;;;;5073923;28;20176;-67
2022/03/01 10:26:27;;;;;;;9.87;2.27;;;20.40;99.90;;;;;;5072912;28;20237;-67
2022/03/01 10:28:57;;;;;;;20.87;3.30;;;20.50;99.90;;;;;;5074288;28;20531;-67
2022/03/01 10:31:29;;;;;;;16.47;3.00;;;20.40;99.90;;;;;;5073976;28;20245;-70
2022/03/01 10:34:05;;;;;;;12.70;2.30;;;20.50;99.90;;;;;;5073426;28;20220;-66
2022/03/01 10:36:46;;;;;;;11.00;2.70;;;20.50;99.90;;;;;;5075819;28;20577;-69
2022/03/01 10:39:16;;;;;;;14.00;3.13;;;20.40;99.90;;;;;;5074244;28;20186;-68
2022/03/01 10:41:46;;;;;;;19.07;2.87;;;20.40;99.90;;;;;;5075408;28;20212;-68
2022/03/01 10:44:28;;;;;;;12.17;2.40;;;20.40;99.90;;;;;;5073547;28;20184;-68
2022/03/01 10:46:59;;;;;;;13.10;2.97;;;20.30;99.90;;;;;;5075174;28;20190;-67
2022/03/01 10:49:29;;;;;;;15.37;2.57;;;20.40;99.90;;;;;;5075586;28;20183;-67
2022/03/01 10:52:05;;;;;;;12.43;2.93;;;20.40;99.90;;;;;;5073564;28;20220;-69
2022/03/01 10:54:36;;;;;;;13.20;2.43;;;20.40;99.90;;;;;;5073459;28;20748;-68
2022/03/01 10:57:07;;;;;;;15.03;2.40;;;20.40;99.90;;;;;;5073791;28;20176;-68
2022/03/01 10:59:37;;;;;;;23.07;3.57;;;20.40;99.90;;;;;;5073694;28;20189;-69
2022/03/01 11:02:07;;;;;;;18.83;3.13;;;20.40;99.90;;;;;;5075008;28;20525;-68
2022/03/01 11:04:36;;;;;;;12.37;2.50;;;20.40;99.90;;;;;;5075224;28;20177;-69
2022/03/01 11:07:07;;;;;;;19.73;2.90;;;20.40;99.90;;;;;;5073673;28;20662;-67
2022/03/01 11:09:35;;;;;;;19.17;2.77;;;20.40;99.90;;;;;;5073779;28;20217;-68
2022/03/01 11:12:06;;;;;;;16.60;2.97;;;20.40;99.90;;;;;;5074906;28;20228;-69
2022/03/01 11:15:01;;;;;;;19.73;3.30;;;20.40;99.90;;;;;;5074711;28;20243;-68
2022/03/01 11:18:04;;;;;;;14.67;2.50;;;20.40;99.90;;;;;;5073965;28;20176;-67
2022/03/01 11:20:41;;;;;;;14.13;3.13;;;20.40;99.90;;;;;;5074897;28;20212;-69
2022/03/01 11:23:15;;;;;;;19.20;2.90;;;20.40;99.90;;;;;;5073026;28;20237;-68
2022/03/01 11:25:47;;;;;;;14.90;2.80;;;20.40;99.90;;;;;;5074192;28;20554;-67
2022/03/01 11:28:18;;;;;;;18.67;2.73;;;20.40;99.90;;;;;;5073018;28;20180;-68
2022/03/01 11:30:51;;;;;;;16.37;2.70;;;20.40;99.90;;;;;;5072813;28;20245;-68
2022/03/01 11:33:27;;;;;;;15.80;2.87;;;20.40;99.90;;;;;;5074216;28;20173;-67
2022/03/01 11:35:57;;;;;;;16.53;2.73;;;20.30;99.90;;;;;;5073766;28;20260;-67
2022/03/01 11:38:30;;;;;;;14.40;3.47;;;20.30;99.90;;;;;;5073132;28;20192;-68
2022/03/01 11:41:11;;;;;;;15.43;2.60;;;20.30;99.90;;;;;;5072905;28;20186;-67
2022/03/01 11:43:42;;;;;;;17.73;2.77;;;20.30;99.90;;;;;;5072977;28;20241;-68
2022/03/01 11:46:19;;;;;;;13.37;2.47;;;20.30;99.90;;;;;;5074121;28;20180;-68
2022/03/01 11:48:53;;;;;;;11.47;2.10;;;20.30;99.90;;;;;;5072554;28;20195;-67
2022/03/01 11:51:34;;;;;;;10.87;2.37;;;20.20;99.90;;;;;;5072867;28;20660;-68
2022/03/01 11:54:08;;;;;;;12.67;2.20;;;20.20;99.90;;;;;;5073027;28;20239;-67
2022/03/01 11:56:38;;;;;;;14.87;2.50;;;20.20;99.90;;;;;;5073938;28;20190;-67
2022/03/01 11:59:12;;;;;;;15.17;2.50;;;20.20;99.90;;;;;;5073014;28;20172;-67
2022/03/01 12:01:41;;;;;;;13.30;1.93;;;20.10;99.90;;;;;;5056047;28;20178;-68
2022/03/01 12:04:10;;;;;;;11.70;2.07;;;20.10;99.90;;;;;;5072323;28;20210;-67
2022/03/01 12:06:40;;;;;;;11.27;2.00;;;20.20;99.90;;;;;;5072717;28;20283;-67
2022/03/01 12:09:12;;;;;;;10.77;2.37;;;20.20;99.90;;;;;;5073822;28;20251;-68
2022/03/01 12:11:44;;;;;;;18.07;2.50;;;20.20;99.90;;;;;;5073256;28;20652;-68
2022/03/01 12:14:28;;;;;;;14.10;2.70;;;20.20;99.90;;;;;;5073171;28;20309;-68
2022/03/01 12:16:56;;;;;;;13.83;2.27;;;20.20;99.90;;;;;;5073675;28;20183;-68
2022/03/01 12:19:29;;;;;;;11.43;2.30;;;20.20;99.90;;;;;;5073394;28;20635;-68
2022/03/01 12:22:00;;;;;;;9.33;2.00;;;20.20;99.90;;;;;;5072017;28;20677;-68
2022/03/01 12:24:29;;;;;;;13.47;2.33;;;20.20;99.90;;;;;;5073182;28;20187;-67
2022/03/01 12:27:04;;;;;;;12.20;2.13;;;20.20;99.90;;;;;;5073251;28;20559;-68
2022/03/01 12:29:36;;;;;;;10.47;2.20;;;20.10;99.90;;;;;;5071596;28;20625;-68
2022/03/01 12:32:10;;;;;;;11.87;2.10;;;20.10;99.90;;;;;;5073593;28;20183;-68
2022/03/01 12:34:40;;;;;;;6.27;1.77;;;20.10;99.90;;;;;;5072944;28;20268;-68
2022/03/01 12:37:17;;;;;;;15.03;1.97;;;20.00;99.90;;;;;;5073172;28;20204;-68
2022/03/01 12:39:46;;;;;;;13.03;2.60;;;19.90;99.90;;;;;;5073399;28;20226;-68
2022/03/01 12:42:13;;;;;;;11.90;1.70;;;20.00;99.90;;;;;;5072811;28;20191;-68
2022/03/01 12:44:42;;;;;;;14.93;2.43;;;20.00;99.90;;;;;;5072986;28;20184;-68
2022/03/01 12:47:10;;;;;;;14.30;1.77;;;19.90;99.90;;;;;;5072622;28;20184;-68
2022/03/01 12:49:38;;;;;;;8.03;2.10;;;19.90;99.90;;;;;;5071890;28;20195;-67
2022/03/01 12:52:06;;;;;;;10.17;1.90;;;19.90;99.90;;;;;;5071871;28;20263;-67